Timeline UpdatesTrip UpdatesNews PostsPvt PostsTravel TipsAdmin PostsConv PostsFollowed PostsChat RequestsBlog PostsPNR Posts

Disclaimer
Search
 
 
Thu Apr 24, 2014 09:34:24 ISTHomeTrainsΣChainsAtlasPNRForumGalleryNewsFAQTripsMembersLoginFeedback
No Recent News for this Train
Other Trains in the News **new
Latest...
..
Tue Oct 08, 2013 (06:13AM)
⇐ Return Journey: Train# 13133

13134/Varanasi - Sealdah (Upper India) Express

Feb 08 2014 (8:51AM)
Change Departure Station:
Change Arrival Station:
Post a Train Travel TipPost a Train Travel Tip **new
Post a Comment/Question/Picture/VideoPost a Comment/Question/Picture/Video
Pantry/Catering
✕ NO Pantry Car
✕ NO Catering
RSA - Rake Sharing
No RSA
Rake/Coach Composition
LOCO-SLR-S1-GS-GS-GS-GS-GS-GS-SLR
Loco
BWN or JMP shed WDM-3A
News    PNR    Forum    Time-Table    Availability    Fare Chart    Map    Arr/Dep History    Trips    Gallery    ΣChains    X/O    Timeline    
Travel Time: 9h 20m    34 halts    Distance: 302 km    Avg Speed: 32 km/hr
Type: Mail/Express
Zone: ER/Eastern
Departs @ 08:40 (Avg 2m late)
Platform# 4
SMTWTFS
Varanasi Junction/BSB 
Arrives @ 18:00 (Avg 1h 19m late)
Platform# ???
SMTWTFS
Punarakh/PHK 

34 halts. 72 intermediate Stations between Varanasi Junction and Punarakh

Show ALL intermediate Stations  Show Old Time-Table

#CodeStation NameX/OArrivesAvgDepartsAvgHaltPFDay#KmSpeedElevZoneAddress
1BSB»Varanasi Junction (9)»  -08:40+2410.01882mNRVaranasi, Uttar Pradesh
2MGSMughal Sarai Junction (8)X  09:35+209:50+415m--116.44283mECRMughalsarai 232101, Uttar Pradesh
3SLDSakaldiha (2)  10:16+210:18+122m--134.68781mECRState Highway 69, Uttar Pradesh
4ZNAZamaniaX  10:36+2310:38+272m--160.75877mECRGhazipur, Uttar Pradesh
5DLNDildarnagar Junction (2)  10:52+2610:57+275m--174.13672mECRDildarnagar, Uttar Pradesh
6BWHBhadaura  11:10+2411:12+252m--182.04969mECRGhazipur, Uttar Pradesh
7GMRGahmar (2)  11:22+2411:24+292m--190.26968mECRDistt: Ghazipur, Uttar Pradesh
8CSAChausa (2)  11:32+3111:34+352m--199.44468mECRState Highway 14, Bihar
9BXRBuxar (3)X  11:49+3211:53+334m11110.310967mECRBuxar, Bihar
10DUREDumraon (3)  12:02+3812:04+392m--1126.74670mECRDumraon, Bihar
11TWGTwining GanjX12:14+3812:16+412m--1134.3-70mECRArrah Buxar Rd, Bihar
12RPRRaghunathpur  12:18+4812:20+492m--1142.66669mECRRaghunathpur, Bihar
13BYNBanahiX  12:28+4912:30+492m--1151.55167mECRBanahi, Bihar
14BEABihiyaX  12:37+5112:39+522m--1157.47767mECRBehea, Bihar
15KRSKarisath (2)X  12:48+5812:50+1:042m--1168.95965mECRKarisath, Bihar
16ARAAra Junction (3)  13:00+1:0213:05+1:045m--1178.87463mECRarrah( 06182-233411), Bihar
17KUAKulharia (2)  13:13+1:1213:14+1:171m--1188.74361mECRChandi Sahar Rd, Bihar
18KWRKoelwar (2)X  13:19+1:1513:21+1:152m--1192.31865mECRNational Highway 30, Bihar
19VHCHChakki Block CabinX  13:29+1:1513:31+1:132m--1194.85463mECRNational Highway 30, Bihar
20BTABihta (2)X  13:38+1:1313:40+1:162m--1201.04262mECRBihta, Bihar
21SDESadisopur (2)X  13:46+1:1813:48+1:182m--1205.36164mECRSadisopur, Bihar
22NEONeora (2)XO  13:55+1:1813:57+1:242m--1212.3761mECRNational Highway 98, Bihar
23DNRDanapur (5)XO  14:50+4615:00+4910m--1218.45158mECRKhagaul, Bihar
24PWSPhulwari Sharif (3)X  15:04+5215:06+532m--1221.8958mECRPatna, Bihar
25PNBEPatna Junction (10)X  15:45+3215:55+3610m11227.82257mECRPatna 800001, Bihar
26RJPBRajendra Nagar Bihar (4)X  16:02+3816:04+382m--1230.45155mECRPatna 800001, Bihar
27GZHGulzarbagh (3)X  16:09+4116:11+462m--1234.62055mECRPatna, Bihar
28PNCPatna Saheb (3)  16:20+4416:22+472m--1237.75659mECRPatna, Bihar
29FUTFatwa (6)  16:35+5016:37+1:032m--1249.92853mECRPatna, Bihar
30HDEHardas BighaX  16:42+1:0416:44+1:042m--1252.27453mECRFatwah, Bihar
31KOOKhusropur (2)O  16:49+1:0416:51+1:052m--1258.32052mECRPatna, Bihar
32KWOKarauta (2)X  17:16+5117:18+1:022m--1266.63254mECRKarauta, Bihar
33BKPBakhtiyarpur Junction (5)X  17:30+1:0317:32+1:112m--1272.99151mECRPatna, Bihar
34ATLAthmal Gola (2)  17:38+1:1417:40+1:142m--1282.06952mECRPatna, Bihar
35BARHBarh (3)  17:48+1:1617:50+1:212m--1291.16249mECRBarh, Bihar
36PHK•Punarakh•XO  18:00+1:1918:02+1:192m--1301.51051mECRPunarakh, Bihar
37MORMorX  18:51+4218:53+442m--1309.83646mECRMor, Bihar
38MKAMokama Junction (3)  19:05+4119:10+405m--1317.06348mECRPatna, Bihar
39HTZHathidah Junction (2)X  19:18+4319:20+432m11325.44350mECRMusahari, Bihar
40BRYABarhiyaX  19:33+4919:35+492m--1334.87047mECRBarahiya, Bihar
41LKRLuckeesarai Junction (2)XO  19:48+5519:50+552m--1349.9152mECRLakhisarai, Bihar
42KIULKiul Junction (5)  20:45+2720:55+2710m51351.25953mECRDist. Lakhisarai, Bihar
43KJHKajra (2)  21:11+2521:13+262m--1367.04950mERLakhisarai District, Bihar
44AHAAbhaipur  21:22+2821:24+282m--1374.25552mERAbhaipur, Bihar
45DRHDharhara (2)  21:35+2921:37+282m--1384.34755mERDharhara, Bihar
46DRTPDasharathpur  21:44+2821:46+292m--1389.72748mERDharhara, Bihar
47JMPJamalpur Junction (4)  22:00+2522:10+2610m--1396.14759mERJamalpur 06344-243101, Bihar
48RPURRatanpur  22:18+2822:20+282m--1402.44246mERRatanpur Railway Station, Bihar
49BUPBariarpur (3)  22:27+2722:29+282m--1407.25442mERMunger, Bihar
50SGGSultanGanj  22:49+2422:51+262m--1425.14642mERSultanganj, Bihar
51AKNAkbarnagar  23:04+2423:06+242m--1435.24539mERTilakpur, Bihar
52MPYMurarpur  23:13+2223:15+222m--1440.54238mERMau, Bihar
53NATNathnagar  23:22+2123:24+212m--1445.41848mERBhagalpur, Bihar
54BGPBhagalpur Junction (6)X  23:40+1523:55+2115m--1450.15749mERBhagalpur, Bihar
55SBOSabaur (3)X  00:03+2400:05+262m--2457.65042mERSabour, Bihar
56GGAGhoga (2)  00:20+2900:22+292m--2470.14942mERGhoga, Bihar
57EKCEkchari  00:29+3000:31+302m--2475.82037mERNational Highway 80, Bihar
58CLGKahalgaon (2)X  00:44+2700:46+282m22480.23244mERBhagalpur, Bihar
59BKSLBikram Shila  01:01+2501:03+252m--2488.22358mERBikram Shila, Bihar
60SVRPShivanarayanpur (2)  01:12+2301:14+252m--2491.64847mERShivanarayanpur, Bihar
61PPTPirpainti (2)  01:25+2501:27+262m--2500.55653mERBhagalpur, Bihar
62MZCMirza Cheuki (3)  01:36+2801:38+292m--2509.03638mERBihar, Bihar
63SBGSahibganj Junction (3)  02:03+2502:13+3110m12524.05638mERSahibganj, Jharkhand
64MJPMaharajpur (2)X  02:28+1502:34+96m--2538.08534mERMoharajpur, Jharkhand
65TLJTaljhari  02:44+3502:46+352m--2552.23638mERTaljhari, Jharkhand
66KXEKalian ChakX  02:54-03:00-6m--2557.09745mERKalian Chak, Jharkhand
67TPHTinpahar Junction (3)  03:03+2503:05+252m22561.82945mERBamangawan, Jharkhand
68BHWBarharwa Junction (3)  03:40+1303:45+145m22578.56536mERBarharwa, Jharkhand
69KLPKotalpukur (3)X  03:58+3204:00+312m12592.56540mERKotalpukur, Jharkhand
70PKRPakur (2)  04:11+3404:13+342m22604.54237mERDist:- Pakur, Jharkhand
71RJGRajgram (3)  04:28+3504:30+352m22615.15032mERRajgram, West Bengal
72BSBRBanshlai Bridge (2)  04:38+3604:40+362m--2621.84335mERState Highway 5, West Bengal
73MRRMurarai (3)  04:47+3704:49+382m22626.85736mERMurarai, West Bengal
74CTRChatra (3)X  04:57+4104:59+412m22634.44742mERChatra, West Bengal
75NHTNalhati Junction (4)  05:10+3905:12+402m22643.02348mERNalhati, West Bengal
76RPHRampurhat (3)X  05:48+2906:03+2315m12657.16841mERDIST - Birbhum, West Bengal
77MLVMallarpur (3)  06:14+2806:16+282m--2669.54946mERDist - Birbhum, West Bengal
78SNTSainthia Junction (4)X  06:35+2906:37+292m42685.18058mERDist - Birbhum, West Bengal
79AMPAhmadpur Junction (3)  06:47+3206:49+322m22698.36546mERDist - Birbhum, West Bengal
80PNEPrantik (3)  07:03+3107:05+302m22713.63248mERPrantik, West Bengal
81BHPBolpur Shantiniketan (3)  07:13+2807:18+265m22717.87159mERBolpur, West Bengal
82GKHGuskara (2)X  07:34+2807:36+282m--2736.73541mERDist - Bardhaman, West Bengal
83BWNBarddhaman Junction (8)XO  08:32+2008:56+1124m--2769.67034mERDist - Barddhaman, West Bengal
84DAKEDakhineswar (2)  10:12+910:14+92m22858.22310mERDist - 24 paraganas ( North ), West Bengal
85BNXRBidhan Nagar Road (4)  10:38+810:40+82m42867.6138mERKolkata, West Bengal
86SDAHKolkata Sealdah (20)10:55+7-92870.9-8mERPh : 033-23503535 (For North: APC Roy Road) Kolkata 700014, West Bengal
Scroll to Top
Scroll to Bottom